DRZA/AJY METAR and TAF weather

Enter ICAO airport designator
Station Type Date Time Source
DRZA METAR 2021/09/25 12:00 UTC NOAA

DRZA 251200Z 09016KT CAVOK 40/04 Q1013


Station Type Date Time Source
DRZA Decoded METAR 2021/09/25 12:00 UTC NOAA

Agadez, Niger (DRZA) 16-58N 007-59E 502M
Sep 25, 2021 - 08:00 AM EDT / 2021.09.25 1200 UTC
Wind: from the E (090 degrees) at 18 MPH (16 KT):0
Visibility: greater than 7 mile(s):0
Temperature: 104 F (40 C)
Dew Point: 39 F (4 C)
Relative Humidity: 11%
Pressure (altimeter): 29.91 in. Hg (1013 hPa)
ob: DRZA 251200Z 09016KT CAVOK 40/04 Q1013
cycle: 12

Station Type Date Time Source
DRZA TAF 2021/09/25 12:21 UTC NOAA

TAF DRZA 251100Z 2512/2612 10008KT 8000 NSC

Example: see airport list